This is the latest recevied weather packets stored in our database for station/object K9RCP-24. If no packets are shown the sender has not sent any weather packets the latest 10 day(s).
| Time | Temp. | Humidity | Pressure | Rain* | Wind** | Luminosity | Snow |
|---|---|---|---|---|---|---|---|
| 1777913380 | 13.89° C | 74% | 1016.3 hPa | 0 mm | - | - | - |
| 1777911946 | 13.33° C | 75% | 1016.3 hPa | 0 mm | - | - | - |
| 1777911155 | 13.33° C | 76% | 1016.3 hPa | 0 mm | - | - | - |
| 1777911031 | 13.33° C | 76% | 1016.3 hPa | 0 mm | - | - | - |
| 1777910374 | 13.33° C | 76% | 1016.6 hPa | 0 mm | - | - | - |
| 1777909627 | 13.33° C | 77% | 1016.6 hPa | 0 mm | - | - | - |
| 1777909379 | 13.33° C | 78% | 1016.6 hPa | 0 mm | - | - | - |
| 1777909256 | 13.33° C | 78% | 1016.3 hPa | 0 mm | - | - | - |
| 1777909132 | 13.33° C | 77% | 1016.6 hPa | 0 mm | - | - | - |
| 1777908197 | 13.33° C | 78% | 1016.3 hPa | 0 mm | - | - | - |
| 1777907950 | 13.33° C | 78% | 1016.3 hPa | 0 mm | - | - | - |
| 1777907928 | 12.78° C | 79% | 1016.3 hPa | 0 mm | - | - | - |
| 1777906766 | -17.78° C | 100% | 1016.3 hPa | 0 mm | - | - | - |
| 1777905668 | 12.78° C | 81% | 1015.9 hPa | 0 mm | - | - | - |
| 1777904771 | 12.22° C | 81% | 1015.9 hPa | 0 mm | - | - | - |
| 1777904647 | 12.22° C | 81% | 1015.9 hPa | 0 mm | - | - | - |
| 1777904400 | 12.22° C | 82% | 1015.6 hPa | 0 mm | - | - | - |
| 1777903781 | -17.78° C | 100% | 1015.6 hPa | 0 mm | - | - | - |
| 1777903658 | -17.78° C | 100% | 1015.6 hPa | 0 mm | - | - | - |
| 1777903130 | 11.67° C | 82% | 1015.6 hPa | 0 mm | - | - | - |
| 1777901787 | -17.78° C | 100% | 1015.2 hPa | 0 mm | - | - | - |
| 1777900765 | -17.78° C | 100% | 1015.2 hPa | 0 mm | - | - | - |
| 1777900511 | -17.78° C | 100% | 1014.9 hPa | 0 mm | - | - | - |
| 1777899255 | -17.78° C | 100% | 1014.6 hPa | 0 mm | - | - | - |
| 1777899130 | -17.78° C | 100% | 1014.6 hPa | 0 mm | - | - | - |
* Rain latest hour (hover to see other rain measurements)
** Current wind speed in m/s (hover to see current wind gust speed)